createdAt,value
2022-08-05T00:00:48.374Z,99686.13
2022-08-05T00:03:18.670Z,99685.50
2022-08-05T00:06:05.066Z,99689.34
2022-08-05T00:08:37.536Z,99684.81
2022-08-05T00:11:20.627Z,99694.31
2022-08-05T00:13:52.985Z,99701.56
2022-08-05T00:16:35.286Z,99707.38
2022-08-05T00:19:05.623Z,99703.50
2022-08-05T00:21:35.644Z,99694.22
2022-08-05T00:24:10.756Z,99696.50
2022-08-05T00:26:50.881Z,99703.13
2022-08-05T00:29:25.229Z,99715.78
2022-08-05T00:32:12.597Z,99707.88
2022-08-05T00:35:05.124Z,99698.72
2022-08-05T00:37:53.454Z,99716.03
2022-08-05T00:40:28.030Z,99715.41
2022-08-05T00:42:59.868Z,99720.25
2022-08-05T00:45:39.162Z,99715.31
2022-08-05T00:48:13.657Z,99716.97
2022-08-05T00:50:44.347Z,99724.53
2022-08-05T00:54:01.482Z,99712.63
2022-08-05T00:56:07.753Z,99716.56
2022-08-05T00:58:36.944Z,99716.19
2022-08-05T01:01:08.974Z,99718.75
2022-08-05T01:03:37.872Z,99713.63
2022-08-05T01:06:06.577Z,99724.88
2022-08-05T01:08:44.639Z,99726.91
2022-08-05T01:11:24.453Z,99725.63
2022-08-05T01:14:08.841Z,99727.81
2022-08-05T01:16:45.155Z,99725.13
2022-08-05T01:19:46.117Z,99722.31
2022-08-05T01:22:31.732Z,99711.75
2022-08-05T01:25:40.855Z,99724.91
2022-08-05T01:28:18.572Z,99730.16
2022-08-05T01:30:55.451Z,99727.75
2022-08-05T01:33:35.533Z,99728.94
2022-08-05T01:36:13.061Z,99722.78
2022-08-05T01:38:48.444Z,99723.84
2022-08-05T01:41:22.028Z,99719.34
2022-08-05T01:43:53.875Z,99723.16
2022-08-05T01:46:41.485Z,99721.66
2022-08-05T01:49:24.167Z,99732.28
2022-08-05T01:52:00.247Z,99725.97
2022-08-05T01:54:45.813Z,99729.97
2022-08-05T01:58:12.660Z,99729.38
2022-08-05T02:00:12.114Z,99726.16
2022-08-05T02:02:53.698Z,99735.72
2022-08-05T02:05:28.540Z,99730.91
2022-08-05T02:08:01.041Z,99736.41
2022-08-05T02:10:36.232Z,99733.41
2022-08-05T02:13:15.851Z,99735.72
2022-08-05T02:15:51.084Z,99731.38
2022-08-05T02:18:30.790Z,99735.03
2022-08-05T02:21:13.271Z,99724.78
2022-08-05T02:23:46.027Z,99724.16
2022-08-05T02:26:17.826Z,99726.53
2022-08-05T02:28:48.525Z,99729.47
2022-08-05T02:31:23.105Z,99725.34
2022-08-05T02:33:57.296Z,99721.50
2022-08-05T02:36:31.612Z,99723.38
2022-08-05T02:39:03.123Z,99714.81
2022-08-05T02:41:43.370Z,99725.31
2022-08-05T02:44:27.223Z,99727.44
2022-08-05T02:47:00.123Z,99729.66
2022-08-05T02:49:35.916Z,99735.25
2022-08-05T02:52:11.697Z,99733.44
2022-08-05T02:54:50.631Z,99730.28
2022-08-05T02:58:10.102Z,99727.47
2022-08-05T03:00:14.460Z,99738.09
2022-08-05T03:02:46.415Z,99734.31
2022-08-05T03:05:16.543Z,99741.78
2022-08-05T03:08:06.958Z,99741.25
2022-08-05T03:10:37.395Z,99739.97
2022-08-05T03:13:16.898Z,99742.91
2022-08-05T03:15:46.656Z,99739.97
2022-08-05T03:18:17.408Z,99741.69
2022-08-05T03:20:48.911Z,99744.63
2022-08-05T03:23:19.123Z,99735.66
2022-08-05T03:26:30.474Z,99743.94
2022-08-05T03:28:41.378Z,99745.94
2022-08-05T03:31:10.767Z,99742.97
2022-08-05T03:33:52.693Z,99742.16
2022-08-05T03:36:30.248Z,99745.81
2022-08-05T03:38:59.632Z,99744.00
2022-08-05T03:41:33.216Z,99735.09
2022-08-05T03:44:10.344Z,99733.44
2022-08-05T03:46:40.635Z,99732.41
2022-08-05T03:49:10.537Z,99731.72
2022-08-05T03:52:37.633Z,99737.50
2022-08-05T03:55:34.715Z,99738.00
2022-08-05T03:57:41.960Z,99731.38
2022-08-05T04:00:15.527Z,99730.06
2022-08-05T04:02:58.154Z,99739.03
2022-08-05T04:05:33.813Z,99730.44
2022-08-05T04:08:05.679Z,99739.06
2022-08-05T04:10:45.354Z,99734.25
2022-08-05T04:13:14.330Z,99731.28
2022-08-05T04:15:52.865Z,99736.56
2022-08-05T04:18:34.340Z,99739.25
2022-08-05T04:21:05.444Z,99734.78
2022-08-05T04:24:05.452Z,99732.47
2022-08-05T04:26:24.673Z,99738.78
2022-08-05T04:28:53.335Z,99736.47
2022-08-05T04:31:22.245Z,99736.09
2022-08-05T04:34:18.577Z,99746.03
2022-08-05T04:36:50.191Z,99737.44
2022-08-05T04:39:19.363Z,99733.16
2022-08-05T04:41:51.242Z,99751.50
2022-08-05T04:44:21.354Z,99744.06
2022-08-05T04:46:53.055Z,99750.00
2022-08-05T04:49:24.745Z,99750.69
2022-08-05T04:52:08.505Z,99753.34
2022-08-05T04:54:37.280Z,99754.97
2022-08-05T04:57:05.916Z,99754.34
2022-08-05T04:59:39.054Z,99752.34
2022-08-05T05:02:37.225Z,99756.97
2022-08-05T05:05:02.818Z,99755.00
2022-08-05T05:07:35.585Z,99759.94
2022-08-05T05:10:06.526Z,99753.81
2022-08-05T05:12:36.721Z,99756.47
2022-08-05T05:15:10.896Z,99764.91
2022-08-05T05:17:56.645Z,99763.59
2022-08-05T05:20:28.461Z,99764.91
2022-08-05T05:22:59.763Z,99770.53
2022-08-05T05:25:40.373Z,99765.53
2022-08-05T05:28:09.806Z,99772.50
2022-08-05T05:30:38.552Z,99777.78
2022-08-05T05:33:17.156Z,99781.78
2022-08-05T05:35:47.416Z,99785.91
2022-08-05T05:38:22.736Z,99782.44
2022-08-05T05:40:57.020Z,99786.91
2022-08-05T05:43:57.523Z,99784.78
2022-08-05T05:46:17.231Z,99780.31
2022-08-05T05:48:47.920Z,99781.97
2022-08-05T05:51:21.767Z,99792.41
2022-08-05T05:53:57.446Z,99780.97
2022-08-05T05:56:32.602Z,99783.59
2022-08-05T05:59:05.093Z,99784.94
2022-08-05T06:01:37.811Z,99781.78
2022-08-05T06:04:11.809Z,99784.41
2022-08-05T06:06:43.108Z,99794.16
2022-08-05T06:09:25.732Z,99787.69
2022-08-05T06:12:00.976Z,99797.94
2022-08-05T06:14:30.895Z,99797.22
2022-08-05T06:17:02.118Z,99789.56
2022-08-05T06:19:56.958Z,99787.38
2022-08-05T06:22:30.272Z,99785.72
2022-08-05T06:25:25.028Z,99786.28
2022-08-05T06:28:10.686Z,99782.78
2022-08-05T06:30:41.447Z,99790.66
2022-08-05T06:33:10.805Z,99790.75
2022-08-05T06:36:06.972Z,99795.44
2022-08-05T06:38:36.170Z,99790.69
2022-08-05T06:41:07.785Z,99798.91
2022-08-05T06:43:58.488Z,99801.84
2022-08-05T06:46:30.032Z,99799.88
2022-08-05T06:48:59.711Z,99807.53
2022-08-05T06:51:30.932Z,99809.56
2022-08-05T06:54:01.861Z,99805.50
2022-08-05T06:56:34.610Z,99802.16
2022-08-05T06:59:03.942Z,99805.38
2022-08-05T07:01:40.489Z,99800.63
2022-08-05T07:04:10.374Z,99799.50
2022-08-05T07:06:40.941Z,99804.59
2022-08-05T07:09:09.609Z,99800.94
2022-08-05T07:11:40.102Z,99799.50
2022-08-05T07:14:29.368Z,99796.75
2022-08-05T07:17:58.331Z,99793.53
2022-08-05T07:22:42.233Z,99798.16
2022-08-05T07:25:22.509Z,99795.34
2022-08-05T07:27:57.304Z,99782.25
2022-08-05T07:30:32.628Z,99796.31
2022-08-05T07:33:05.185Z,99789.88
2022-08-05T07:36:02.710Z,99785.81
2022-08-05T07:38:34.341Z,99791.31
2022-08-05T07:42:07.481Z,99796.75
2022-08-05T07:43:57.906Z,99798.81
2022-08-05T07:46:27.882Z,99798.06
2022-08-05T07:49:04.076Z,99797.53
2022-08-05T07:51:48.574Z,99796.13
2022-08-05T07:54:30.630Z,99794.81
2022-08-05T07:57:18.171Z,99792.81
2022-08-05T07:59:52.101Z,99796.44
2022-08-05T08:02:26.534Z,99772.91
2022-08-05T08:04:55.748Z,99787.00
2022-08-05T08:07:24.762Z,99798.53
2022-08-05T08:09:57.399Z,99790.84
2022-08-05T08:12:37.547Z,99773.75
2022-08-05T08:15:16.326Z,99797.84
2022-08-05T08:17:50.838Z,99770.31
2022-08-05T08:20:59.921Z,99788.66
2022-08-05T08:24:01.136Z,99794.75
2022-08-05T08:26:04.411Z,99768.28
2022-08-05T08:28:36.118Z,99743.41
2022-08-05T08:31:08.386Z,99785.94
2022-08-05T08:33:37.842Z,99780.03
2022-08-05T08:38:57.746Z,99767.66
2022-08-05T08:41:51.271Z,99719.38
2022-08-05T08:45:24.392Z,99752.31
2022-08-05T08:47:22.248Z,99773.38
2022-08-05T08:50:13.057Z,99761.75
2022-08-05T08:52:52.990Z,99757.25
2022-08-05T08:55:32.065Z,99759.44
2022-08-05T08:58:12.843Z,99733.09
2022-08-05T09:00:44.376Z,99736.22
2022-08-05T09:03:16.295Z,99743.88
2022-08-05T09:06:09.132Z,99745.41
2022-08-05T09:08:40.494Z,99693.72
2022-08-05T09:11:13.579Z,99728.53
2022-08-05T09:14:00.985Z,99736.97
2022-08-05T09:16:32.791Z,99712.06
2022-08-05T09:19:06.801Z,99722.88
2022-08-05T09:22:23.298Z,99710.47
2022-08-05T09:24:24.546Z,99707.31
2022-08-05T09:26:56.347Z,99716.91
2022-08-05T09:29:47.645Z,99706.41
2022-08-05T09:32:51.273Z,99703.94
2022-08-05T09:35:26.311Z,99688.38
2022-08-05T09:38:18.452Z,99692.66
2022-08-05T09:40:52.666Z,99731.50
2022-08-05T09:43:40.210Z,99719.91
2022-08-05T09:46:28.333Z,99732.63
2022-08-05T09:49:07.955Z,99727.88
2022-08-05T09:51:48.739Z,99737.84
2022-08-05T09:54:21.343Z,99716.97
2022-08-05T09:57:01.627Z,99704.75
2022-08-05T09:59:35.087Z,99705.84
2022-08-05T10:02:06.330Z,99737.59
2022-08-05T10:04:41.169Z,99741.66
2022-08-05T10:07:19.954Z,99729.28
2022-08-05T10:10:14.460Z,99714.56
2022-08-05T10:12:49.217Z,99702.16
2022-08-05T10:15:25.764Z,99711.53
2022-08-05T10:18:20.391Z,99732.63
2022-08-05T10:20:51.740Z,99680.66
2022-08-05T10:23:55.990Z,99702.19
2022-08-05T10:26:14.014Z,99726.81
2022-08-05T10:28:43.968Z,99727.56
2022-08-05T10:32:51.661Z,99704.84
2022-08-05T10:34:03.932Z,99712.44
2022-08-05T10:36:37.443Z,99718.25
2022-08-05T10:39:15.197Z,99721.88
2022-08-05T10:42:01.344Z,99711.34
2022-08-05T10:44:32.761Z,99712.34
2022-08-05T10:47:26.272Z,99710.06
2022-08-05T10:50:31.543Z,99711.19
2022-08-05T10:52:58.692Z,99696.72
2022-08-05T10:55:32.890Z,99714.41
2022-08-05T10:58:20.726Z,99712.34
2022-08-05T11:00:55.241Z,99720.94
2022-08-05T11:03:31.571Z,99699.00
2022-08-05T11:06:15.128Z,99706.06
2022-08-05T11:09:13.033Z,99670.56
2022-08-05T11:11:53.573Z,99707.50
2022-08-05T11:17:57.181Z,99682.38
2022-08-05T11:20:41.737Z,99711.38
2022-08-05T11:24:02.947Z,99712.47
2022-08-05T11:26:28.503Z,99706.91
2022-08-05T11:29:11.573Z,99714.41
2022-08-05T11:31:58.419Z,99717.75
2022-08-05T11:34:51.010Z,99703.44
2022-08-05T11:38:36.741Z,99711.31
2022-08-05T11:41:03.513Z,99705.13
2022-08-05T11:44:05.589Z,99688.16
2022-08-05T11:46:58.441Z,99719.44
2022-08-05T11:49:34.300Z,99712.00
2022-08-05T11:52:11.399Z,99714.28
2022-08-05T11:54:54.925Z,99676.19
2022-08-05T11:57:39.360Z,99713.50
2022-08-05T12:00:28.881Z,99686.50
2022-08-05T12:02:59.516Z,99692.88
2022-08-05T12:05:32.381Z,99724.09
2022-08-05T12:08:11.464Z,99711.00
2022-08-05T12:10:45.853Z,99686.97
2022-08-05T12:13:27.947Z,99708.38
2022-08-05T12:16:15.429Z,99706.00
2022-08-05T12:18:53.284Z,99679.31
2022-08-05T12:21:26.865Z,99679.31
2022-08-05T12:24:05.194Z,99696.25
2022-08-05T12:26:36.086Z,99704.84
2022-08-05T12:29:09.762Z,99698.28
2022-08-05T12:31:53.731Z,99719.88
2022-08-05T12:34:28.706Z,99714.69
2022-08-05T12:36:59.188Z,99667.78
2022-08-05T12:39:37.274Z,99697.56
2022-08-05T12:42:14.772Z,99657.06
2022-08-05T12:44:44.725Z,99714.72
2022-08-05T12:47:17.238Z,99693.16
2022-08-05T12:50:04.653Z,99718.94
2022-08-05T12:52:41.864Z,99698.53
2022-08-05T12:55:25.513Z,99711.78
2022-08-05T12:58:52.493Z,99678.31
2022-08-05T13:02:03.965Z,99719.09
2022-08-05T13:03:43.067Z,99703.47
2022-08-05T13:06:18.223Z,99718.50
2022-08-05T13:08:52.283Z,99717.81
2022-08-05T13:12:01.043Z,99691.88
2022-08-05T13:14:25.104Z,99701.22
2022-08-05T13:17:10.559Z,99728.94
2022-08-05T13:19:51.073Z,99686.19
2022-08-05T13:22:27.970Z,99675.25
2022-08-05T13:25:00.606Z,99724.16
2022-08-05T13:27:35.708Z,99692.63
2022-08-05T13:30:34.630Z,99673.75
2022-08-05T13:33:01.294Z,99668.19
2022-08-05T13:35:47.477Z,99691.53
2022-08-05T13:38:30.596Z,99670.25
2022-08-05T13:41:02.795Z,99715.38
2022-08-05T13:43:45.858Z,99701.25
2022-08-05T13:46:44.014Z,99707.91
2022-08-05T13:49:11.536Z,99712.97
2022-08-05T13:51:46.189Z,99675.91
2022-08-05T13:54:20.860Z,99702.91
2022-08-05T13:56:53.971Z,99681.94
2022-08-05T13:59:25.533Z,99663.22
2022-08-05T14:01:57.848Z,99707.38
2022-08-05T14:04:49.791Z,99713.94
2022-08-05T14:07:25.498Z,99703.91
2022-08-05T14:10:19.074Z,99708.97
2022-08-05T14:12:57.331Z,99683.53
2022-08-05T14:16:07.313Z,99691.03
2022-08-05T14:18:18.506Z,99713.41
2022-08-05T14:20:48.771Z,99687.47
2022-08-05T14:23:25.222Z,99678.69
2022-08-05T14:25:58.795Z,99656.25
2022-08-05T14:28:28.845Z,99711.09
2022-08-05T14:30:57.675Z,99642.38
2022-08-05T14:33:26.441Z,99708.84
2022-08-05T14:35:55.710Z,99664.28
2022-08-05T14:38:31.736Z,99683.38
2022-08-05T14:41:06.249Z,99713.50
2022-08-05T14:44:01.570Z,99715.31
2022-08-05T14:46:28.961Z,99676.09
2022-08-05T14:49:03.404Z,99714.22
2022-08-05T14:51:35.716Z,99720.56
2022-08-05T14:54:26.928Z,99692.47
2022-08-05T14:56:55.450Z,99658.56
2022-08-05T14:59:24.271Z,99701.53
2022-08-05T15:01:53.851Z,99698.81
2022-08-05T15:04:23.441Z,99711.38
2022-08-05T15:06:56.531Z,99671.31
2022-08-05T15:09:52.533Z,99670.53
2022-08-05T15:12:17.005Z,99719.41
2022-08-05T15:14:49.834Z,99714.38
2022-08-05T15:17:46.059Z,99715.81
2022-08-05T15:20:18.319Z,99721.47
2022-08-05T15:22:54.330Z,99717.34
2022-08-05T15:25:41.255Z,99702.84
2022-08-05T15:28:15.663Z,99658.69
2022-08-05T15:30:45.906Z,99706.13
2022-08-05T15:33:56.410Z,99674.25
2022-08-05T15:36:05.559Z,99702.44
2022-08-05T15:38:41.162Z,99702.50
2022-08-05T15:41:21.902Z,99689.31
2022-08-05T15:43:55.345Z,99671.88
2022-08-05T15:46:25.238Z,99661.09
2022-08-05T15:49:01.226Z,99693.88
2022-08-05T15:52:13.921Z,99702.63
2022-08-05T15:54:35.018Z,99635.38
2022-08-05T15:57:07.625Z,99661.09
2022-08-05T15:59:38.443Z,99655.28
2022-08-05T16:02:09.748Z,99666.09
2022-08-05T16:04:44.091Z,99660.59
2022-08-05T16:07:13.438Z,99665.34
2022-08-05T16:09:43.526Z,99698.44
2022-08-05T16:12:12.348Z,99685.59
2022-08-05T16:14:42.830Z,99648.97
2022-08-05T16:17:12.464Z,99663.22
2022-08-05T16:20:05.524Z,99627.63
2022-08-05T16:22:34.115Z,99668.59
2022-08-05T16:25:21.402Z,99624.78
2022-08-05T16:28:02.237Z,99675.19
2022-08-05T16:30:36.728Z,99665.56
2022-08-05T16:33:05.451Z,99661.50
2022-08-05T16:35:34.597Z,99704.63
2022-08-05T16:38:18.377Z,99681.16
2022-08-05T16:41:00.607Z,99687.13
2022-08-05T16:43:32.268Z,99684.03
2022-08-05T16:46:12.694Z,99664.50
2022-08-05T16:48:52.292Z,99691.50
2022-08-05T16:51:21.627Z,99675.09
2022-08-05T16:54:02.562Z,99680.75
2022-08-05T16:56:36.256Z,99695.38
2022-08-05T16:59:08.486Z,99684.84
2022-08-05T17:01:54.063Z,99684.97
2022-08-05T17:04:26.530Z,99694.06
2022-08-05T17:06:57.047Z,99700.88
2022-08-05T17:09:30.266Z,99688.81
2022-08-05T17:12:00.383Z,99682.09
2022-08-05T17:14:36.810Z,99694.53
2022-08-05T17:17:09.385Z,99678.41
2022-08-05T17:19:45.616Z,99692.69
2022-08-05T17:22:25.009Z,99686.94
2022-08-05T17:24:57.921Z,99683.56
2022-08-05T17:27:33.848Z,99690.22
2022-08-05T17:30:07.088Z,99691.03
2022-08-05T17:32:48.757Z,99691.72
2022-08-05T17:35:20.848Z,99692.06
2022-08-05T17:37:50.523Z,99682.28
2022-08-05T17:40:22.260Z,99669.97
2022-08-05T17:42:52.965Z,99686.09
2022-08-05T17:45:29.480Z,99689.56
2022-08-05T17:48:09.109Z,99685.84
2022-08-05T17:50:39.671Z,99675.66
2022-08-05T17:53:08.410Z,99690.94
2022-08-05T17:55:39.971Z,99688.53
2022-08-05T17:58:12.395Z,99689.97
2022-08-05T18:00:45.245Z,99683.03
2022-08-05T18:03:58.950Z,99673.34
2022-08-05T18:06:11.397Z,99689.22
2022-08-05T18:08:44.711Z,99694.81
2022-08-05T18:11:24.627Z,99686.69
2022-08-05T18:14:03.399Z,99677.38
2022-08-05T18:16:33.476Z,99675.91
2022-08-05T18:19:04.586Z,99677.00
2022-08-05T18:22:08.229Z,99695.28
2022-08-05T18:24:24.231Z,99695.28
2022-08-05T18:26:55.684Z,99697.69
2022-08-05T18:29:40.316Z,99693.25
2022-08-05T18:32:12.984Z,99694.31
2022-08-05T18:34:45.738Z,99688.66
2022-08-05T18:37:33.719Z,99694.69
2022-08-05T18:41:50.255Z,99697.28
2022-08-05T18:42:52.134Z,99707.44
2022-08-05T18:45:20.939Z,99710.22
2022-08-05T18:47:56.519Z,99703.19
2022-08-05T18:50:46.505Z,99690.88
2022-08-05T18:53:20.852Z,99708.22
2022-08-05T18:55:53.613Z,99710.72
2022-08-05T18:58:28.775Z,99702.44
2022-08-05T19:00:58.253Z,99688.31
2022-08-05T19:03:52.975Z,99706.00
2022-08-05T19:06:22.095Z,99715.13
2022-08-05T19:09:02.792Z,99707.16
2022-08-05T19:11:37.090Z,99706.84
2022-08-05T19:14:53.341Z,99707.69
2022-08-05T19:17:11.694Z,99712.47
2022-08-05T19:19:46.407Z,99722.19
2022-08-05T19:22:17.924Z,99711.47
2022-08-05T19:24:54.577Z,99700.97
2022-08-05T19:27:30.158Z,99709.84
2022-08-05T19:29:59.275Z,99722.63
2022-08-05T19:32:28.338Z,99720.94
2022-08-05T19:34:57.942Z,99732.72
2022-08-05T19:37:47.224Z,99723.53
2022-08-05T19:40:18.290Z,99723.28
2022-08-05T19:43:00.872Z,99724.59
2022-08-05T19:45:36.649Z,99737.00
2022-08-05T19:48:06.586Z,99740.53
2022-08-05T19:50:36.767Z,99734.38
2022-08-05T19:53:09.488Z,99741.38
2022-08-05T19:56:15.569Z,99735.63
2022-08-05T19:58:30.110Z,99729.44
2022-08-05T20:00:59.004Z,99734.78
2022-08-05T20:03:38.738Z,99732.13
2022-08-05T20:06:14.820Z,99739.13
2022-08-05T20:08:47.482Z,99750.41
2022-08-05T20:11:18.039Z,99751.47
2022-08-05T20:13:59.050Z,99742.38
2022-08-05T20:16:37.291Z,99750.63
2022-08-05T20:19:06.252Z,99755.72
2022-08-05T20:21:35.359Z,99766.41
2022-08-05T20:24:11.520Z,99766.38
2022-08-05T20:26:40.349Z,99778.31
2022-08-05T20:29:26.715Z,99782.38
2022-08-05T20:31:58.241Z,99781.34
2022-08-05T20:34:28.522Z,99790.81
2022-08-05T20:36:56.976Z,99770.03
2022-08-05T20:39:35.667Z,99793.03
2022-08-05T20:42:05.619Z,99791.56
2022-08-05T20:44:37.916Z,99799.78
2022-08-05T20:47:07.988Z,99797.50
2022-08-05T20:49:39.318Z,99791.31
2022-08-05T20:52:10.792Z,99816.66
2022-08-05T20:55:54.449Z,99814.38
2022-08-05T20:57:43.832Z,99821.59
2022-08-05T21:00:34.937Z,99828.75
2022-08-05T21:03:07.212Z,99824.41
2022-08-05T21:05:53.543Z,99820.09
2022-08-05T21:08:26.816Z,99826.06
2022-08-05T21:11:12.741Z,99824.03
2022-08-05T21:13:55.729Z,99829.16
2022-08-05T21:16:29.833Z,99826.03
2022-08-05T21:18:59.906Z,99831.16
2022-08-05T21:21:39.654Z,99835.50
2022-08-05T21:24:15.379Z,99833.84
2022-08-05T21:26:53.267Z,99841.78
2022-08-05T21:29:32.099Z,99837.47
2022-08-05T21:32:02.184Z,99829.66
2022-08-05T21:34:31.594Z,99842.19
2022-08-05T21:37:01.860Z,99842.34
2022-08-05T21:39:31.214Z,99843.75
2022-08-05T21:42:04.991Z,99835.50
2022-08-05T21:44:33.849Z,99840.44
2022-08-05T21:47:02.482Z,99829.28
2022-08-05T21:49:48.149Z,99838.16
2022-08-05T21:52:26.755Z,99831.34
2022-08-05T21:55:06.298Z,99840.34
2022-08-05T21:57:42.657Z,99837.03
2022-08-05T22:00:13.058Z,99846.91
2022-08-05T22:02:42.539Z,99831.47
2022-08-05T22:05:11.783Z,99837.81
2022-08-05T22:08:01.988Z,99832.00
2022-08-05T22:10:29.750Z,99819.38
2022-08-05T22:14:05.298Z,99822.66
2022-08-05T22:16:01.240Z,99845.09
2022-08-05T22:18:36.604Z,99828.59
2022-08-05T22:21:18.893Z,99842.38
2022-08-05T22:24:12.948Z,99848.09
2022-08-05T22:27:17.260Z,99842.72
2022-08-05T22:29:47.598Z,99832.81
2022-08-05T22:32:18.601Z,99840.81
2022-08-05T22:34:47.150Z,99841.69
2022-08-05T22:37:15.706Z,99839.16
2022-08-05T22:39:44.287Z,99844.88
2022-08-05T22:42:21.568Z,99818.22
2022-08-05T22:44:56.543Z,99831.09
2022-08-05T22:47:30.004Z,99830.66
2022-08-05T22:50:23.141Z,99826.91
2022-08-05T22:52:51.395Z,99835.28
2022-08-05T22:55:21.982Z,99840.78
2022-08-05T22:57:51.195Z,99834.56
2022-08-05T23:00:22.952Z,99842.00
2022-08-05T23:02:52.341Z,99842.94
2022-08-05T23:05:22.388Z,99828.63
2022-08-05T23:07:51.503Z,99840.56
2022-08-05T23:10:20.675Z,99851.22
2022-08-05T23:12:54.371Z,99850.78
2022-08-05T23:15:29.891Z,99847.88
2022-08-05T23:18:06.064Z,99850.53
2022-08-05T23:20:43.230Z,99854.13
2022-08-05T23:23:11.968Z,99854.75
2022-08-05T23:25:52.197Z,99859.28
2022-08-05T23:28:26.857Z,99857.22
2022-08-05T23:31:03.707Z,99859.56
2022-08-05T23:34:05.216Z,99845.69
2022-08-05T23:36:39.964Z,99852.13
2022-08-05T23:39:17.126Z,99852.00
2022-08-05T23:41:52.753Z,99844.31
2022-08-05T23:44:25.157Z,99824.56
2022-08-05T23:46:58.151Z,99848.44
2022-08-05T23:49:36.045Z,99846.34
2022-08-05T23:52:23.064Z,99847.97
2022-08-05T23:54:55.729Z,99855.94
2022-08-05T23:57:24.657Z,99837.34
